Time;durP1;ratioP1;P1;durP2;ratioP2;P2;SDS_P1;SDS_P2;PMS_P1;PMS_P2;Temp;Humidity;BMP_temperature;BMP_pressure;BME280_temperature;BME280_humidity;BME280_pressure;Samples;Min_cycle;Max_cycle;Signal;HPM_P1;HPM_P2
2022/07/16 00:02:03;;;;;;;7.85;2.42;;;16.20;99.90;;;;;;5073770;28;37538;-53
2022/07/16 00:04:31;;;;;;;4.47;1.75;;;16.20;99.90;;;;;;5070991;28;37528;-52
2022/07/16 00:06:58;;;;;;;6.40;2.00;;;16.20;99.90;;;;;;5071993;28;36655;-52
2022/07/16 00:09:25;;;;;;;7.00;1.90;;;16.20;99.90;;;;;;5071789;28;38399;-53
2022/07/16 00:11:54;;;;;;;6.70;1.90;;;16.30;99.90;;;;;;5071646;28;36624;-53
2022/07/16 00:14:21;;;;;;;7.32;1.80;;;16.30;99.90;;;;;;5071847;28;40029;-53
2022/07/16 00:16:48;;;;;;;7.43;2.22;;;16.30;99.90;;;;;;5072311;28;38037;-52
2022/07/16 00:19:23;;;;;;;4.65;1.90;;;16.40;99.90;;;;;;5070913;28;37884;-53
2022/07/16 00:21:54;;;;;;;5.70;2.20;;;16.40;99.90;;;;;;5070475;28;37038;-53
2022/07/16 00:24:22;;;;;;;6.45;1.90;;;16.40;99.90;;;;;;5070312;28;38262;-52
2022/07/16 00:26:50;;;;;;;4.50;1.80;;;16.40;99.90;;;;;;5069718;28;38312;-53
2022/07/16 00:29:19;;;;;;;7.50;2.90;;;16.40;99.90;;;;;;5071053;28;37238;-51
2022/07/16 00:31:47;;;;;;;6.07;1.85;;;16.50;99.90;;;;;;5072688;28;37410;-53
2022/07/16 00:34:15;;;;;;;7.22;2.35;;;16.50;99.90;;;;;;5072462;28;38137;-53
2022/07/16 00:36:42;;;;;;;6.22;2.55;;;16.50;99.90;;;;;;5071657;28;36478;-52
2022/07/16 00:39:11;;;;;;;6.10;2.25;;;16.50;99.90;;;;;;5071669;28;37436;-53
2022/07/16 00:41:39;;;;;;;5.82;2.13;;;16.50;99.90;;;;;;5071288;28;37499;-53
2022/07/16 00:44:08;;;;;;;4.88;2.17;;;16.50;99.90;;;;;;5071596;28;38602;-53
2022/07/16 00:46:38;;;;;;;5.10;2.33;;;16.40;99.90;;;;;;5071144;28;37058;-52
2022/07/16 00:49:06;;;;;;;9.32;2.13;;;16.40;99.90;;;;;;5071243;28;38287;-52
2022/07/16 00:51:35;;;;;;;5.05;2.20;;;16.40;99.90;;;;;;5072454;28;36822;-53
2022/07/16 00:54:04;;;;;;;6.43;2.60;;;16.40;99.90;;;;;;5070565;28;37715;-53
2022/07/16 00:56:32;;;;;;;6.15;2.45;;;16.40;99.90;;;;;;5070781;28;39367;-51
2022/07/16 00:58:59;;;;;;;7.07;2.50;;;16.40;99.90;;;;;;5071108;28;36164;-53
2022/07/16 01:01:27;;;;;;;5.88;2.80;;;16.40;99.90;;;;;;5071912;28;36029;-53
2022/07/16 01:03:55;;;;;;;4.50;2.28;;;16.40;99.90;;;;;;5071211;28;38286;-53
2022/07/16 01:06:23;;;;;;;10.77;3.35;;;16.40;99.90;;;;;;5071175;28;37727;-51
2022/07/16 01:08:51;;;;;;;6.90;3.05;;;16.40;99.90;;;;;;5072393;28;38836;-53
2022/07/16 01:11:21;;;;;;;4.70;2.80;;;16.40;99.90;;;;;;5069947;28;35363;-53
2022/07/16 01:13:50;;;;;;;6.55;2.42;;;16.40;99.90;;;;;;5070171;28;38976;-53
2022/07/16 01:16:19;;;;;;;9.00;2.53;;;16.40;99.90;;;;;;5072030;28;39078;-52
2022/07/16 01:18:47;;;;;;;8.77;2.10;;;16.40;99.90;;;;;;5071684;28;38890;-53
2022/07/16 01:21:17;;;;;;;3.45;1.40;;;16.40;99.90;;;;;;5071415;28;35343;-53
2022/07/16 01:23:47;;;;;;;4.70;1.73;;;16.40;99.90;;;;;;5070805;28;38666;-53
2022/07/16 01:26:14;;;;;;;3.92;1.30;;;16.40;99.90;;;;;;5070903;28;38137;-53
2022/07/16 01:28:42;;;;;;;6.18;1.80;;;16.40;99.90;;;;;;5067707;28;38292;-53
2022/07/16 01:31:11;;;;;;;7.78;1.80;;;16.40;99.90;;;;;;5071346;28;35590;-52
2022/07/16 01:33:40;;;;;;;9.27;2.47;;;16.40;99.90;;;;;;5070441;28;36403;-52
2022/07/16 01:36:10;;;;;;;6.50;1.90;;;16.40;99.90;;;;;;5070772;28;37785;-53
2022/07/16 01:38:40;;;;;;;5.90;1.70;;;16.30;99.90;;;;;;5071777;28;36244;-52
2022/07/16 01:41:09;;;;;;;4.50;1.58;;;16.40;99.90;;;;;;5070005;28;37383;-52
2022/07/16 01:43:36;;;;;;;6.43;2.00;;;16.40;99.90;;;;;;5070605;28;37180;-53
2022/07/16 01:46:04;;;;;;;3.45;1.20;;;16.40;99.90;;;;;;5070246;28;38658;-52
2022/07/16 01:48:32;;;;;;;5.53;1.83;;;16.40;99.90;;;;;;5071411;28;37768;-53
2022/07/16 01:51:00;;;;;;;5.30;1.55;;;16.40;99.90;;;;;;5070953;28;36460;-51
2022/07/16 01:53:29;;;;;;;6.47;1.73;;;16.40;99.90;;;;;;5062108;28;37398;-52
2022/07/16 01:55:56;;;;;;;5.60;1.58;;;16.40;99.90;;;;;;5070216;28;37429;-53
2022/07/16 01:58:25;;;;;;;5.22;1.58;;;16.30;99.90;;;;;;5070626;28;37322;-53
2022/07/16 02:00:53;;;;;;;8.98;1.73;;;16.30;99.90;;;;;;5071067;28;36645;-52
2022/07/16 02:03:21;;;;;;;3.35;1.30;;;16.30;99.90;;;;;;5070784;28;37451;-53
2022/07/16 02:05:49;;;;;;;7.78;1.77;;;16.30;99.90;;;;;;5068959;28;38008;-53
2022/07/16 02:08:16;;;;;;;4.03;1.33;;;16.30;99.90;;;;;;5071039;28;36137;-53
2022/07/16 02:10:43;;;;;;;4.25;1.35;;;16.30;99.90;;;;;;5069945;28;37864;-52
2022/07/16 02:13:11;;;;;;;4.60;1.40;;;16.30;99.90;;;;;;5070634;28;37405;-53
2022/07/16 02:15:40;;;;;;;4.30;1.50;;;16.20;99.90;;;;;;5070364;28;37778;-51
2022/07/16 02:18:07;;;;;;;6.35;1.80;;;16.20;99.90;;;;;;5071706;28;36022;-52
2022/07/16 02:20:35;;;;;;;2.75;1.20;;;16.20;99.90;;;;;;5069384;28;36732;-52
2022/07/16 02:23:02;;;;;;;5.50;1.30;;;16.20;99.90;;;;;;5070012;28;37545;-53
2022/07/16 02:25:29;;;;;;;4.18;1.20;;;16.10;99.90;;;;;;5069125;28;38007;-53
2022/07/16 02:28:09;;;;;;;5.85;1.63;;;16.10;99.90;;;;;;5069299;28;38041;-53
2022/07/16 02:30:40;;;;;;;5.50;1.80;;;16.00;99.90;;;;;;5063398;28;35442;-53
2022/07/16 02:33:09;;;;;;;5.07;1.58;;;16.00;99.90;;;;;;5069861;28;36276;-52
2022/07/16 02:35:37;;;;;;;6.15;1.40;;;16.00;99.90;;;;;;5068709;28;36444;-53
2022/07/16 02:38:06;;;;;;;6.95;1.58;;;15.90;99.90;;;;;;5070593;28;36090;-52
2022/07/16 02:40:34;;;;;;;7.55;1.90;;;15.90;99.90;;;;;;5067596;28;35629;-52
2022/07/16 02:43:02;;;;;;;3.63;1.55;;;15.90;99.90;;;;;;5069371;28;36332;-52
2022/07/16 02:45:30;;;;;;;4.68;1.65;;;15.90;99.90;;;;;;5068734;28;37763;-52
2022/07/16 02:47:58;;;;;;;4.38;1.48;;;15.80;99.90;;;;;;5069881;28;37562;-53
2022/07/16 02:50:26;;;;;;;4.93;1.60;;;15.80;99.90;;;;;;5067956;28;37033;-53
2022/07/16 02:52:54;;;;;;;11.20;2.45;;;15.80;99.90;;;;;;5068660;28;37746;-53
2022/07/16 02:55:21;;;;;;;6.72;1.52;;;15.80;99.90;;;;;;5068859;28;37438;-52
2022/07/16 02:57:48;;;;;;;5.32;1.60;;;15.70;99.90;;;;;;5069077;28;38914;-53
2022/07/16 03:00:17;;;;;;;6.47;1.70;;;15.70;99.90;;;;;;5070246;28;37607;-53
2022/07/16 03:02:44;;;;;;;7.40;2.13;;;15.60;99.90;;;;;;5070028;28;38537;-53
2022/07/16 03:05:14;;;;;;;4.75;1.27;;;15.50;99.90;;;;;;5069349;28;36615;-53
2022/07/16 03:07:41;;;;;;;5.85;1.60;;;15.50;99.90;;;;;;5069288;28;37331;-52
2022/07/16 03:10:11;;;;;;;5.55;2.03;;;15.50;99.90;;;;;;5068163;28;35201;-53
2022/07/16 03:12:39;;;;;;;3.97;1.35;;;15.40;99.90;;;;;;5069743;28;37477;-53
2022/07/16 03:15:08;;;;;;;7.10;1.92;;;15.40;99.90;;;;;;5069365;28;38535;-52
2022/07/16 03:17:35;;;;;;;4.00;1.55;;;15.40;99.90;;;;;;5070782;28;38057;-52
2022/07/16 03:20:03;;;;;;;4.93;1.40;;;15.30;99.90;;;;;;5068219;28;35498;-53
2022/07/16 03:22:32;;;;;;;4.50;1.85;;;15.30;99.90;;;;;;5069930;28;36435;-52
2022/07/16 03:25:00;;;;;;;5.25;1.40;;;15.30;99.90;;;;;;5068753;28;36549;-52
2022/07/16 03:27:27;;;;;;;5.85;1.67;;;15.20;99.90;;;;;;5060973;28;38707;-52
2022/07/16 03:29:54;;;;;;;5.45;1.30;;;15.10;99.90;;;;;;5069202;28;36631;-52
2022/07/16 03:32:22;;;;;;;4.93;1.60;;;15.10;99.90;;;;;;5069006;28;38205;-53
2022/07/16 03:34:49;;;;;;;7.28;1.80;;;15.10;99.90;;;;;;5069602;28;40343;-52
2022/07/16 03:37:16;;;;;;;6.60;1.77;;;15.10;99.90;;;;;;5068744;28;37928;-51
2022/07/16 03:39:45;;;;;;;7.90;1.70;;;15.10;99.90;;;;;;5069366;28;35251;-53
2022/07/16 03:42:12;;;;;;;5.97;1.70;;;15.00;99.90;;;;;;5069995;28;37399;-52
2022/07/16 03:44:40;;;;;;;5.13;1.60;;;15.10;99.90;;;;;;5068806;28;37916;-52
2022/07/16 03:47:07;;;;;;;4.05;1.40;;;15.10;99.90;;;;;;5068588;28;39110;-51
2022/07/16 03:49:34;;;;;;;7.85;2.20;;;15.00;99.90;;;;;;5061312;28;36846;-50
2022/07/16 03:52:01;;;;;;;7.22;1.80;;;15.10;99.90;;;;;;5069152;28;38611;-51
2022/07/16 03:54:29;;;;;;;5.03;2.00;;;15.10;99.90;;;;;;5068389;28;37383;-53
2022/07/16 03:56:57;;;;;;;5.32;1.77;;;15.10;99.90;;;;;;5068710;28;37723;-52
2022/07/16 03:59:25;;;;;;;4.80;1.58;;;15.10;99.90;;;;;;5068826;28;38068;-51
2022/07/16 04:01:52;;;;;;;6.05;1.67;;;15.10;99.90;;;;;;5068423;28;38144;-52
2022/07/16 04:04:20;;;;;;;7.30;2.00;;;15.10;99.90;;;;;;5068509;28;36530;-51
2022/07/16 04:06:47;;;;;;;5.55;1.60;;;15.20;99.90;;;;;;5068156;28;37321;-52
2022/07/16 04:09:14;;;;;;;8.75;1.95;;;15.20;99.90;;;;;;5069048;28;36274;-52
2022/07/16 04:11:41;;;;;;;8.07;2.22;;;15.10;99.90;;;;;;5070185;28;37783;-52
2022/07/16 04:14:10;;;;;;;9.27;2.50;;;15.20;99.90;;;;;;5067954;28;38359;-52
2022/07/16 04:16:37;;;;;;;7.20;1.65;;;15.10;99.90;;;;;;5068639;28;37411;-50
2022/07/16 04:19:05;;;;;;;6.40;2.20;;;15.20;99.90;;;;;;5068113;28;35341;-52
2022/07/16 04:21:32;;;;;;;5.30;1.52;;;15.30;99.90;;;;;;5068380;28;37346;-53
2022/07/16 04:24:00;;;;;;;6.68;1.92;;;15.30;99.90;;;;;;5068470;28;38799;-52
2022/07/16 04:26:28;;;;;;;5.00;1.80;;;15.30;99.90;;;;;;5067375;28;36274;-52
2022/07/16 04:28:56;;;;;;;6.80;1.70;;;15.30;99.90;;;;;;5069268;28;20060;-52
2022/07/16 04:31:25;;;;;;;5.30;1.33;;;15.30;99.90;;;;;;5069571;28;37739;-52
2022/07/16 04:33:53;;;;;;;7.65;1.48;;;15.20;99.90;;;;;;5069896;28;39976;-52
2022/07/16 04:36:20;;;;;;;8.13;1.40;;;15.20;99.90;;;;;;5072468;28;37930;-51
2022/07/16 04:38:47;;;;;;;5.05;1.42;;;15.30;99.90;;;;;;5072334;28;35463;-53
2022/07/16 04:41:15;;;;;;;4.50;1.30;;;15.20;99.90;;;;;;5072713;28;37624;-52
2022/07/16 04:43:42;;;;;;;9.20;2.20;;;15.30;99.90;;;;;;5071091;28;37646;-52
2022/07/16 04:46:09;;;;;;;8.27;1.80;;;15.30;99.90;;;;;;5071951;28;37102;-52
2022/07/16 04:48:38;;;;;;;5.55;1.42;;;15.30;99.90;;;;;;5071892;28;37360;-51
2022/07/16 04:51:05;;;;;;;7.85;2.13;;;15.30;99.90;;;;;;5071137;28;37523;-51
2022/07/16 04:53:35;;;;;;;9.32;1.85;;;15.30;99.90;;;;;;5072921;28;37815;-52
2022/07/16 04:56:02;;;;;;;8.70;1.50;;;15.40;99.90;;;;;;5071192;28;37911;-51
2022/07/16 04:58:30;;;;;;;7.38;1.70;;;15.40;99.90;;;;;;5069658;28;37917;-52
2022/07/16 05:00:57;;;;;;;5.00;1.30;;;15.40;99.90;;;;;;5070515;28;36360;-52
2022/07/16 05:03:25;;;;;;;7.22;1.30;;;15.40;99.90;;;;;;5070989;28;38299;-52
2022/07/16 05:05:53;;;;;;;9.18;1.48;;;15.50;99.90;;;;;;5071451;28;37153;-53
2022/07/16 05:08:21;;;;;;;5.60;1.25;;;15.50;99.90;;;;;;5070502;28;37090;-53
2022/07/16 05:10:48;;;;;;;5.75;1.30;;;15.60;99.90;;;;;;5071735;28;36195;-53
2022/07/16 05:13:15;;;;;;;5.55;1.42;;;15.70;99.90;;;;;;5070465;28;38619;-53
2022/07/16 05:15:43;;;;;;;6.57;1.67;;;15.90;99.90;;;;;;5070866;28;36298;-52
2022/07/16 05:18:11;;;;;;;9.02;1.42;;;16.00;99.90;;;;;;5071443;28;36324;-53
2022/07/16 05:20:38;;;;;;;9.95;1.30;;;16.10;99.90;;;;;;5071487;28;37448;-53
2022/07/16 05:23:07;;;;;;;7.05;1.30;;;16.10;99.90;;;;;;5071087;28;37835;-51
2022/07/16 05:25:34;;;;;;;9.38;1.02;;;16.20;99.90;;;;;;5070089;28;37442;-52
2022/07/16 05:28:02;;;;;;;6.82;1.20;;;16.40;99.90;;;;;;5071072;28;35737;-52
2022/07/16 05:30:30;;;;;;;6.35;1.30;;;16.50;99.90;;;;;;5069882;28;37681;-53
2022/07/16 05:32:57;;;;;;;5.78;1.00;;;16.60;99.90;;;;;;5071863;28;37734;-52
2022/07/16 05:35:24;;;;;;;7.00;1.15;;;16.70;99.90;;;;;;5069775;28;38155;-52
2022/07/16 05:37:51;;;;;;;2.85;1.42;;;16.80;99.90;;;;;;5068158;28;38926;-53
2022/07/16 05:40:20;;;;;;;5.28;1.40;;;17.00;99.90;;;;;;5068709;28;37536;-53
2022/07/16 05:42:48;;;;;;;6.35;1.08;;;17.00;99.90;;;;;;5068505;28;38263;-53
2022/07/16 05:45:15;;;;;;;4.85;1.00;;;17.10;99.90;;;;;;5069600;28;37151;-53
2022/07/16 05:47:42;;;;;;;3.97;1.02;;;17.30;99.90;;;;;;5070615;28;39112;-53
2022/07/16 05:50:10;;;;;;;4.20;1.20;;;17.40;99.90;;;;;;5066940;28;38944;-60
2022/07/16 05:52:38;;;;;;;6.47;1.58;;;17.50;99.90;;;;;;5069463;28;36672;-61
2022/07/16 05:55:06;;;;;;;5.38;1.00;;;17.50;99.90;;;;;;5068770;28;38796;-60
2022/07/16 05:57:35;;;;;;;3.50;1.05;;;17.50;99.90;;;;;;5070051;28;36617;-61
2022/07/16 06:00:02;;;;;;;10.02;1.17;;;17.60;99.80;;;;;;5070983;28;37514;-61
2022/07/16 06:02:29;;;;;;;8.60;1.30;;;17.60;99.60;;;;;;5070180;28;37904;-61
2022/07/16 06:04:57;;;;;;;9.65;1.77;;;17.60;99.50;;;;;;5071178;28;36247;-61
2022/07/16 06:07:24;;;;;;;6.20;1.20;;;17.60;99.50;;;;;;5071048;28;37195;-60
2022/07/16 06:09:51;;;;;;;5.20;0.98;;;17.60;99.10;;;;;;5069582;28;38268;-61
2022/07/16 06:12:19;;;;;;;5.90;0.98;;;17.70;99.20;;;;;;5070633;28;38774;-61
2022/07/16 06:14:48;;;;;;;8.45;1.60;;;17.70;98.80;;;;;;5069832;28;35881;-61
2022/07/16 06:17:15;;;;;;;6.43;1.10;;;17.60;98.40;;;;;;5069250;28;36931;-60
2022/07/16 06:19:45;;;;;;;6.93;1.42;;;17.60;98.40;;;;;;5070212;28;38060;-61
2022/07/16 06:22:12;;;;;;;6.32;1.30;;;17.60;97.80;;;;;;5070672;28;38429;-61
2022/07/16 06:24:39;;;;;;;6.28;1.30;;;17.70;97.50;;;;;;5069018;28;38880;-61
2022/07/16 06:27:07;;;;;;;6.28;0.95;;;17.70;97.30;;;;;;5071005;28;36765;-60
2022/07/16 06:29:34;;;;;;;4.10;0.88;;;17.70;96.70;;;;;;5069539;28;38667;-60
2022/07/16 06:32:02;;;;;;;5.57;0.90;;;17.80;96.90;;;;;;5069811;28;36472;-61
2022/07/16 06:34:30;;;;;;;5.55;0.85;;;17.80;96.40;;;;;;5070328;28;37216;-61
2022/07/16 06:36:57;;;;;;;3.08;0.95;;;17.80;96.50;;;;;;5070467;28;37359;-61
2022/07/16 06:39:24;;;;;;;5.90;1.00;;;17.80;96.50;;;;;;5070332;28;38953;-61
2022/07/16 06:41:52;;;;;;;3.38;0.73;;;17.90;96.20;;;;;;5070736;28;36749;-61
2022/07/16 06:44:19;;;;;;;6.43;0.80;;;17.90;96.50;;;;;;5068867;28;37158;-61
2022/07/16 06:46:46;;;;;;;6.10;0.90;;;17.90;95.70;;;;;;5067209;28;37306;-61
2022/07/16 06:49:15;;;;;;;5.60;1.10;;;17.90;94.90;;;;;;5069123;28;36955;-61
2022/07/16 06:51:42;;;;;;;8.82;1.00;;;17.90;94.40;;;;;;5069450;28;37326;-61
2022/07/16 06:54:10;;;;;;;21.20;1.40;;;17.80;94.20;;;;;;5068249;28;37436;-62
2022/07/16 06:56:37;;;;;;;8.80;1.67;;;17.80;94.20;;;;;;5069586;28;35268;-63
2022/07/16 06:59:04;;;;;;;14.20;1.15;;;17.80;94.10;;;;;;5068482;28;37792;-62
2022/07/16 07:01:32;;;;;;;5.97;1.42;;;17.80;94.20;;;;;;5069196;28;39642;-63
2022/07/16 07:03:59;;;;;;;7.32;1.42;;;17.70;94.50;;;;;;5069443;28;38873;-61
2022/07/16 07:06:28;;;;;;;7.72;1.40;;;17.70;94.60;;;;;;5070080;28;36949;-62
2022/07/16 07:08:55;;;;;;;8.10;1.30;;;17.60;94.90;;;;;;5068512;28;37922;-62
2022/07/16 07:11:23;;;;;;;5.63;1.45;;;17.50;94.80;;;;;;5069769;28;38643;-61
2022/07/16 07:13:50;;;;;;;3.88;0.80;;;17.50;94.90;;;;;;5068627;28;36054;-62
2022/07/16 07:16:17;;;;;;;6.28;1.13;;;17.40;94.90;;;;;;5067197;28;37671;-63
2022/07/16 07:18:45;;;;;;;7.38;1.08;;;17.30;95.00;;;;;;5068337;28;38478;-62
2022/07/16 07:21:12;;;;;;;11.82;1.75;;;17.10;95.10;;;;;;5069517;28;39635;-61
2022/07/16 07:23:41;;;;;;;5.47;1.02;;;17.20;95.60;;;;;;5069306;28;37286;-61
2022/07/16 07:26:08;;;;;;;7.38;0.90;;;17.30;95.90;;;;;;5069290;28;36501;-61
2022/07/16 07:28:36;;;;;;;9.73;1.55;;;17.40;96.00;;;;;;5068723;28;38578;-61
2022/07/16 07:31:04;;;;;;;15.10;1.27;;;17.60;95.60;;;;;;5068874;28;37140;-61
2022/07/16 07:33:31;;;;;;;6.35;0.85;;;17.70;94.70;;;;;;5069766;28;38766;-61
2022/07/16 07:35:58;;;;;;;8.88;2.08;;;17.80;94.30;;;;;;5069281;28;36581;-61
2022/07/16 07:38:26;;;;;;;7.10;1.08;;;17.80;93.80;;;;;;5069840;28;36346;-60
2022/07/16 07:40:54;;;;;;;14.32;1.35;;;17.80;93.60;;;;;;5068133;28;37856;-60
2022/07/16 07:43:22;;;;;;;8.73;1.10;;;17.90;94.00;;;;;;5066880;28;37075;-61
2022/07/16 07:45:49;;;;;;;8.60;1.10;;;18.00;93.60;;;;;;5066603;28;37901;-60
2022/07/16 07:48:17;;;;;;;6.15;1.15;;;18.00;92.80;;;;;;5067578;28;38221;-60
2022/07/16 07:50:45;;;;;;;6.15;1.15;;;17.90;93.10;;;;;;5067976;28;37787;-60
2022/07/16 07:53:12;;;;;;;5.97;0.82;;;17.70;93.50;;;;;;5067206;28;38027;-59
2022/07/16 07:55:42;;;;;;;6.20;1.15;;;17.70;94.40;;;;;;5058137;28;36494;-60
2022/07/16 07:58:10;;;;;;;8.30;1.20;;;17.80;94.40;;;;;;5059027;28;36394;-60
2022/07/16 08:00:38;;;;;;;8.77;1.63;;;17.90;94.70;;;;;;5063577;28;38303;-60
2022/07/16 08:03:05;;;;;;;6.85;1.27;;;18.00;94.60;;;;;;5062117;28;38289;-59
2022/07/16 08:05:33;;;;;;;19.15;13.57;;;18.00;94.10;;;;;;5061833;28;36480;-60
2022/07/16 08:08:00;;;;;;;8.57;1.98;;;18.00;93.20;;;;;;5065693;28;38576;-59
2022/07/16 08:10:28;;;;;;;7.63;1.00;;;18.00;93.10;;;;;;5065503;28;39721;-60
2022/07/16 08:12:56;;;;;;;5.78;1.17;;;17.90;93.20;;;;;;5064723;28;37260;-59
2022/07/16 08:15:25;;;;;;;3.90;0.95;;;17.90;93.60;;;;;;5064207;28;36124;-59
2022/07/16 08:17:52;;;;;;;5.55;0.95;;;18.00;92.80;;;;;;5065073;28;36450;-59
2022/07/16 08:20:20;;;;;;;3.40;0.98;;;18.00;93.00;;;;;;5065543;28;40938;-59
2022/07/16 08:22:47;;;;;;;6.10;1.00;;;17.90;93.20;;;;;;5065201;28;37266;-59
2022/07/16 08:27:59;;;;;;;4.82;1.08;;;17.90;93.80;;;;;;5065137;28;39801;-60
2022/07/16 08:30:28;;;;;;;8.98;1.60;;;17.70;93.70;;;;;;5065430;28;36723;-61
2022/07/16 08:32:56;;;;;;;6.70;1.10;;;17.60;93.80;;;;;;5066018;28;36519;-61
2022/07/16 08:35:26;;;;;;;10.73;1.50;;;17.70;94.60;;;;;;5065807;28;38929;-60
2022/07/16 08:37:53;;;;;;;9.07;1.92;;;17.80;95.30;;;;;;5065643;28;37852;-60
2022/07/16 08:40:24;;;;;;;7.32;1.33;;;18.00;95.50;;;;;;5065423;28;37036;-60
2022/07/16 08:42:52;;;;;;;7.53;1.05;;;18.20;95.00;;;;;;5064634;28;39265;-60
2022/07/16 08:45:22;;;;;;;5.32;1.98;;;18.40;94.80;;;;;;5065752;28;37396;-60
2022/07/16 08:47:53;;;;;;;6.22;1.00;;;18.60;93.50;;;;;;5055204;28;37574;-59
2022/07/16 08:50:21;;;;;;;4.90;0.90;;;18.60;92.40;;;;;;5066355;28;38280;-61
2022/07/16 08:52:51;;;;;;;12.77;1.20;;;18.80;92.20;;;;;;5064483;28;38198;-60
2022/07/16 08:55:24;;;;;;;8.20;1.20;;;18.90;91.60;;;;;;5064491;28;35501;-60
2022/07/16 08:57:53;;;;;;;9.75;1.30;;;19.00;91.20;;;;;;5062530;28;40459;-60
2022/07/16 09:00:21;;;;;;;5.13;0.88;;;19.10;90.60;;;;;;5064248;28;37849;-60
2022/07/16 09:02:49;;;;;;;7.82;1.27;;;19.20;90.80;;;;;;5064185;28;37460;-61
2022/07/16 09:05:18;;;;;;;5.63;1.20;;;19.30;90.00;;;;;;5065730;28;35324;-61
2022/07/16 09:07:45;;;;;;;4.38;1.13;;;19.20;89.10;;;;;;5065151;28;37363;-62
2022/07/16 09:10:13;;;;;;;6.57;1.30;;;19.10;89.90;;;;;;5063287;28;38478;-61
2022/07/16 09:12:42;;;;;;;5.85;1.10;;;19.20;90.20;;;;;;5063381;28;38035;-62
2022/07/16 09:15:31;;;;;;;5.22;0.90;;;19.00;89.00;;;;;;5065082;28;36920;-61
2022/07/16 09:18:16;;;;;;;7.43;1.27;;;18.90;86.30;;;;;;5065752;28;37498;-63
2022/07/16 09:20:50;;;;;;;5.43;1.20;;;19.00;85.50;;;;;;5064760;28;36685;-60
2022/07/16 09:23:24;;;;;;;6.30;1.15;;;19.20;89.00;;;;;;5065314;28;37710;-60
2022/07/16 09:25:54;;;;;;;5.60;0.80;;;19.30;84.90;;;;;;5063993;28;37149;-59
2022/07/16 09:28:23;;;;;;;6.70;1.27;;;19.30;83.90;;;;;;5068110;28;38076;-59
2022/07/16 09:30:50;;;;;;;3.78;0.82;;;19.10;83.70;;;;;;5068654;28;36378;-59
2022/07/16 09:33:21;;;;;;;9.95;1.40;;;19.00;84.60;;;;;;5066569;28;37022;-60
2022/07/16 09:36:05;;;;;;;8.85;1.33;;;19.10;84.50;;;;;;5065133;28;37556;-61
2022/07/16 09:38:46;;;;;;;7.95;1.38;;;19.20;82.40;;;;;;5066140;28;38548;-60
2022/07/16 09:41:14;;;;;;;5.85;0.93;;;19.30;80.80;;;;;;5067454;28;37224;-60
2022/07/16 09:43:43;;;;;;;4.72;1.10;;;19.50;82.30;;;;;;5065768;28;37969;-59
2022/07/16 09:46:16;;;;;;;5.40;1.10;;;19.40;81.30;;;;;;5066175;28;37812;-60
2022/07/16 09:48:44;;;;;;;5.47;1.13;;;19.30;81.00;;;;;;5066307;28;37303;-62
2022/07/16 09:51:19;;;;;;;9.30;1.23;;;19.20;82.10;;;;;;5064309;28;36902;-61
2022/07/16 09:53:50;;;;;;;5.10;1.27;;;19.30;82.90;;;;;;5064516;28;38925;-60
2022/07/16 09:56:19;;;;;;;7.07;1.10;;;19.40;81.30;;;;;;5065847;28;37428;-59
2022/07/16 09:58:48;;;;;;;6.07;0.95;;;19.60;80.90;;;;;;5063393;28;36555;-60
2022/07/16 10:01:16;;;;;;;7.13;1.15;;;19.50;80.00;;;;;;5065816;28;37835;-60
2022/07/16 10:03:43;;;;;;;10.50;1.40;;;19.50;82.40;;;;;;5066570;28;37982;-60
2022/07/16 10:06:12;;;;;;;5.68;1.08;;;19.50;83.00;;;;;;5063523;28;36296;-60
2022/07/16 10:08:43;;;;;;;14.73;1.45;;;19.50;82.90;;;;;;5064047;28;37109;-59
2022/07/16 10:11:11;;;;;;;6.93;1.00;;;19.60;83.90;;;;;;5063388;28;38472;-59
2022/07/16 10:13:42;;;;;;;86.88;70.85;;;19.60;82.60;;;;;;5063788;28;37619;-59
2022/07/16 10:16:10;;;;;;;13.63;5.97;;;19.80;83.00;;;;;;5063374;28;35014;-60
2022/07/16 10:18:40;;;;;;;10.20;2.72;;;19.90;82.50;;;;;;5063512;28;38472;-60
2022/07/16 10:21:14;;;;;;;8.60;1.95;;;19.70;82.20;;;;;;5063522;28;37839;-60
2022/07/16 10:23:44;;;;;;;6.50;1.00;;;19.60;82.50;;;;;;5063562;28;37511;-60
2022/07/16 10:26:15;;;;;;;4.10;0.90;;;19.60;82.20;;;;;;5062132;28;37514;-60
2022/07/16 10:28:49;;;;;;;5.20;1.55;;;19.70;81.80;;;;;;5055824;28;37578;-60
2022/07/16 10:31:31;;;;;;;4.47;0.75;;;19.90;81.70;;;;;;5042540;28;39072;-60
2022/07/16 10:34:32;;;;;;;5.72;1.30;;;20.00;79.20;;;;;;5058116;28;38346;-60
2022/07/16 10:37:00;;;;;;;5.20;0.90;;;20.20;77.40;;;;;;5058511;28;36462;-60
2022/07/16 10:39:29;;;;;;;5.85;0.88;;;20.30;79.90;;;;;;5062315;28;39987;-60
2022/07/16 10:41:59;;;;;;;4.15;0.98;;;20.40;79.40;;;;;;5062737;28;36615;-61
2022/07/16 10:44:43;;;;;;;7.95;1.25;;;20.40;77.90;;;;;;5063563;28;37441;-60
2022/07/16 10:47:13;;;;;;;10.35;1.73;;;20.20;78.70;;;;;;5063443;28;35848;-60
2022/07/16 10:49:43;;;;;;;8.18;1.30;;;20.30;79.70;;;;;;5061213;28;36339;-60
2022/07/16 10:52:14;;;;;;;9.82;2.20;;;20.30;80.60;;;;;;5062929;28;40845;-60
2022/07/16 10:55:00;;;;;;;6.20;1.25;;;20.50;81.90;;;;;;5064209;28;37438;-60
2022/07/16 10:57:34;;;;;;;10.38;2.45;;;20.50;78.70;;;;;;5062793;28;36349;-60
2022/07/16 11:00:03;;;;;;;3.72;0.93;;;20.50;77.10;;;;;;5064551;28;36401;-60
2022/07/16 11:02:38;;;;;;;6.57;0.80;;;20.50;77.80;;;;;;5064623;28;36775;-61
2022/07/16 11:05:06;;;;;;;6.55;0.90;;;20.60;76.70;;;;;;5063937;28;37927;-60
2022/07/16 11:07:35;;;;;;;6.57;1.23;;;20.50;77.20;;;;;;5063556;28;36762;-61
2022/07/16 11:10:05;;;;;;;7.35;1.13;;;20.50;77.90;;;;;;5064517;28;39118;-60
2022/07/16 11:12:34;;;;;;;16.45;2.28;;;20.60;81.20;;;;;;5062220;28;39188;-61
2022/07/16 11:15:02;;;;;;;6.00;1.10;;;20.60;81.60;;;;;;5062843;28;37576;-60
2022/07/16 11:17:32;;;;;;;5.32;1.30;;;20.40;79.90;;;;;;5063674;28;37788;-60
2022/07/16 11:20:04;;;;;;;5.03;1.13;;;20.20;78.00;;;;;;5061484;28;37555;-60
2022/07/16 11:22:32;;;;;;;6.38;1.05;;;20.00;78.70;;;;;;5064007;28;38383;-60
2022/07/16 11:25:01;;;;;;;12.20;1.50;;;19.70;79.90;;;;;;5061172;28;37671;-60
2022/07/16 11:27:31;;;;;;;8.18;1.00;;;19.50;80.20;;;;;;5061603;28;36534;-60
2022/07/16 11:30:00;;;;;;;7.40;1.40;;;19.50;81.70;;;;;;5061725;28;37298;-58
2022/07/16 11:32:28;;;;;;;5.25;1.30;;;19.50;83.90;;;;;;5063254;28;37468;-60
2022/07/16 11:34:56;;;;;;;6.50;1.10;;;19.60;83.40;;;;;;5062425;28;37052;-61
2022/07/16 11:37:23;;;;;;;5.88;0.85;;;19.70;84.10;;;;;;5063777;28;37135;-60
2022/07/16 11:39:59;;;;;;;8.73;1.67;;;19.70;84.20;;;;;;5062995;28;38353;-60
2022/07/16 11:42:26;;;;;;;6.03;1.13;;;19.60;84.00;;;;;;5066957;28;38506;-59
2022/07/16 11:44:55;;;;;;;8.20;1.95;;;19.60;83.90;;;;;;5066465;28;37369;-59
2022/07/16 11:47:23;;;;;;;9.18;1.88;;;19.50;84.80;;;;;;5066709;28;37452;-59
2022/07/16 11:49:51;;;;;;;5.00;1.10;;;19.50;86.70;;;;;;5065149;28;36383;-60
2022/07/16 11:52:24;;;;;;;6.13;1.17;;;19.60;85.30;;;;;;5066545;28;37925;-59
2022/07/16 11:54:53;;;;;;;8.43;1.67;;;19.70;85.00;;;;;;5065431;28;37596;-59
2022/07/16 11:57:21;;;;;;;8.45;1.42;;;19.70;84.40;;;;;;5065889;28;37531;-59
2022/07/16 11:59:52;;;;;;;10.63;1.40;;;19.60;84.60;;;;;;5065510;28;38375;-60
2022/07/16 12:02:22;;;;;;;7.88;1.40;;;19.50;83.70;;;;;;5065077;28;37989;-59
2022/07/16 12:04:51;;;;;;;6.85;1.88;;;19.50;84.40;;;;;;5065830;28;37362;-59
2022/07/16 12:07:31;;;;;;;9.65;1.30;;;19.50;83.70;;;;;;5066659;28;35481;-60
2022/07/16 12:10:01;;;;;;;6.00;1.50;;;19.60;84.90;;;;;;5065579;28;37497;-60
2022/07/16 12:12:30;;;;;;;16.00;2.55;;;19.70;84.30;;;;;;5066184;28;36735;-59
2022/07/16 12:14:58;;;;;;;5.85;1.50;;;19.60;83.60;;;;;;5064990;28;37316;-60
2022/07/16 12:17:31;;;;;;;8.60;1.30;;;19.60;84.10;;;;;;5064486;28;37022;-60
2022/07/16 12:20:12;;;;;;;10.10;1.58;;;19.60;83.70;;;;;;5065455;28;38850;-60
2022/07/16 12:22:51;;;;;;;6.50;1.23;;;19.60;82.50;;;;;;5066313;28;37406;-60
2022/07/16 12:25:21;;;;;;;7.38;1.45;;;19.50;84.20;;;;;;5064086;28;37301;-60
2022/07/16 12:27:50;;;;;;;7.97;1.27;;;19.60;84.60;;;;;;5038817;28;37247;-60
2022/07/16 12:30:17;;;;;;;7.95;1.33;;;19.60;82.30;;;;;;5039891;28;37303;-60
2022/07/16 12:32:50;;;;;;;6.47;1.33;;;19.50;81.00;;;;;;5039858;28;37475;-60
2022/07/16 12:35:51;;;;;;;8.43;2.03;;;19.50;82.60;;;;;;5039758;28;36485;-60
2022/07/16 12:38:41;;;;;;;5.22;1.13;;;19.60;82.60;;;;;;4964785;28;36541;-60
2022/07/16 12:41:11;;;;;;;7.68;1.52;;;19.60;82.30;;;;;;4962824;28;36374;-60
2022/07/16 12:43:39;;;;;;;6.28;1.42;;;19.50;83.20;;;;;;5009154;28;37900;-60
2022/07/16 12:46:07;;;;;;;10.55;1.73;;;19.60;82.80;;;;;;5038771;28;37961;-60
2022/07/16 12:48:45;;;;;;;4.68;1.40;;;19.60;84.00;;;;;;5039371;28;35002;-60
2022/07/16 12:51:14;;;;;;;6.10;1.10;;;19.60;84.10;;;;;;5038977;28;37456;-60
2022/07/16 12:53:42;;;;;;;6.28;1.00;;;19.70;84.20;;;;;;5039494;28;38460;-60
2022/07/16 12:58:55;;;;;;;4.90;1.30;;;19.80;81.30;;;;;;5040563;28;36360;-60
2022/07/16 13:01:24;;;;;;;8.30;1.20;;;19.70;80.70;;;;;;5039791;28;37582;-60